Latest Weather Observations for Moorabbin Airport

IDV60901

Issued at 5:01 pm EST Monday 27 April 2015 (issued every 10 minutes, with the page automatically refreshed every 10 minutes)

About weather observations | Map of Melbourne area stations | Latest observations for Melbourne area | Other Formats
Station Details ID: 086077 Name: MOORABBIN AIRPORT Lat: -37.98 Lon: 145.10 Height: 12.1 m
Data from the previous 72 hours. | See also: Recent months at Moorabbin Airport
Date/Time
EST
Tmp

°C
App
Tmp
°C
Dew
Point
°C
Rel
Hum
%
Delta-T

°C
Wind Press
QNH
hPa
Press
MSL
hPa
Rain
since
9 am
mm
Dir
 
Spd
km/h
Gust
km/h
Spd
kts
Gust
kts
27/05:00pm 13.6 10.3 9.6 77 2.0 SSW 17 22 9 12 1023.6 1023.6 0.2
27/04:30pm 13.7 10.4 9.7 77 2.1 S 17 22 9 12 1023.4 1023.4 0.2
27/04:00pm 13.7 10.0 9.4 75 2.2 SSW 19 26 10 14 1023.2 1023.2 0.2
27/03:30pm 14.7 11.0 10.3 75 2.3 SSW 20 30 11 16 1023.2 1023.2 0.2
27/03:00pm 14.2 10.4 9.0 71 2.6 WSW 19 26 10 14 1023.0 1023.0 0.2
27/02:30pm 14.6 9.7 8.5 67 3.1 WSW 24 35 13 19 1022.9 1022.9 0.2
27/02:00pm 13.2 9.2 9.1 76 2.1 WSW 20 33 11 18 1022.7 1022.7 0.2
27/01:30pm 13.9 9.4 8.7 71 2.6 WSW 22 30 12 16 1022.6 1022.6 0.2
27/01:00pm 14.1 9.4 9.3 73 2.4 WSW 24 35 13 19 1022.8 1022.8 0.2
27/12:30pm 14.3 10.8 8.7 69 2.8 WSW 17 26 9 14 1022.9 1022.9 0.2
27/12:00pm 13.5 9.6 9.6 77 2.0 WSW 20 30 11 16 1023.1 1023.1 0.2
27/11:30am 13.2 10.0 9.8 80 1.7 W 17 22 9 12 1023.3 1023.3 0.2
27/11:00am 13.3 9.0 9.2 76 2.1 WSW 22 30 12 16 1023.4 1023.4 0.2
27/10:30am 12.7 9.3 9.3 80 1.7 WSW 17 24 9 13 1023.3 1023.3 0.0
27/10:00am 13.2 9.6 9.8 80 1.7 WSW 19 30 10 16 1023.2 1023.2 0.0
27/09:59am 13.1 9.5 9.7 80 1.7 WSW 19 30 10 16 1023.2 1023.2 0.0
27/09:30am 12.7 9.0 10.2 85 1.3 W 20 28 11 15 1023.1 1023.1 0.0
27/09:15am 12.8 10.6 10.7 87 1.1 W 13 20 7 11 1023.0 1023.0 0.0
27/09:00am 12.2 9.4 9.9 86 1.2 W 15 24 8 13 1022.9 1022.9 0.8
27/08:30am 12.1 8.8 9.5 84 1.3 WSW 17 35 9 19 1022.8 1022.8 0.8
27/08:00am 11.6 8.5 10.2 91 0.7 W 17 22 9 12 1022.6 1022.6 0.8
27/07:53am 11.5 8.7 9.9 90 0.8 W 15 20 8 11 1022.6 1022.6 0.8
27/07:48am 11.4 8.2 9.8 90 0.8 WSW 17 26 9 14 1022.6 1022.6 0.8
27/07:38am 11.7 8.5 10.1 90 0.8 W 17 28 9 15 1022.5 1022.5 0.8
27/07:30am 11.8 9.0 10.0 89 0.9 W 15 20 8 11 1022.3 1022.3 0.8
27/07:08am 11.5 9.0 9.8 89 0.9 W 13 22 7 12 1022.0 1022.0 0.6
27/07:00am 11.6 8.4 9.9 89 0.9 W 17 22 9 12 1021.8 1021.8 0.6
27/06:37am 11.8 8.5 9.7 87 1.1 W 17 26 9 14 1021.7 1021.7 0.6
27/06:30am 12.0 8.7 9.7 86 1.2 W 17 26 9 14 1021.6 1021.6 0.6
27/06:02am 11.9 8.7 10.0 88 1.0 WSW 17 26 9 14 1021.3 1021.3 0.6
27/06:00am 11.9 8.7 10.1 89 0.9 WSW 17 26 9 14 1021.3 1021.3 0.6
27/05:30am 11.8 8.2 9.9 88 1.0 W 19 26 10 14 1021.2 1021.2 0.6
27/05:11am 11.8 8.6 9.9 88 1.0 W 17 28 9 15 1021.1 1021.1 0.6
27/05:00am 11.9 8.0 9.6 86 1.2 W 20 28 11 15 1021.0 1021.0 0.6
27/04:50am 12.0 8.7 9.4 84 1.3 W 17 20 9 11 1020.8 1020.8 0.6
27/04:30am 12.0 8.4 9.9 87 1.1 WSW 19 33 10 18 1020.8 1020.8 0.6
27/04:00am 11.8 8.6 10.0 89 0.9 W 17 26 9 14 1020.6 1020.6 0.6
27/03:57am 11.8 8.2 10.0 89 0.9 W 19 26 10 14 1020.6 1020.6 0.6
27/03:39am 12.0 8.3 10.1 88 1.0 WSW 20 30 11 16 1020.6 1020.6 0.6
27/03:30am 11.9 8.7 10.0 88 1.0 W 17 32 9 17 1020.5 1020.5 0.6
27/03:00am 11.9 8.3 9.8 87 1.1 W 19 28 10 15 1020.5 1020.5 0.6
27/02:30am 12.0 8.3 10.1 88 1.0 WSW 20 28 11 15 1020.5 1020.5 0.4
27/02:00am 11.9 8.3 10.0 88 1.0 W 19 26 10 14 1020.5 1020.5 0.4
27/01:37am 11.8 8.5 9.7 87 1.1 W 17 26 9 14 1020.4 1020.4 0.4
27/01:30am 11.8 8.5 9.7 87 1.1 W 17 26 9 14 1020.4 1020.4 0.4
27/01:12am 11.7 7.8 9.6 87 1.1 W 20 30 11 16 1020.4 1020.4 0.4
27/01:00am 11.5 8.6 9.6 88 1.0 W 15 24 8 13 1020.4 1020.4 0.4
27/12:38am 11.6 8.3 9.7 88 1.0 W 17 30 9 16 1020.5 1020.5 0.4
27/12:30am 11.6 8.3 9.7 88 1.0 W 17 28 9 15 1020.5 1020.5 0.4
27/12:18am 11.9 8.0 9.6 86 1.2 W 20 32 11 17 1020.5 1020.5 0.4
27/12:00am 11.7 8.4 9.6 87 1.1 W 17 24 9 13 1020.6 1020.6 0.4
 
Date/Time
EST
Tmp

°C
App
Tmp
°C
Dew
Point
°C
Rel
Hum
%
Delta-T

°C
Wind Press
QNH
hPa
Press
MSL
hPa
Rain
since
9 am
mm
Dir
 
Spd
km/h
Gust
km/h
Spd
kts
Gust
kts
26/11:49pm 11.6 8.3 9.5 87 1.1 W 17 28 9 15 1020.6 1020.6 0.4
26/11:39pm 11.7 8.0 9.4 86 1.2 W 19 28 10 15 1020.7 1020.7 0.4
26/11:30pm 12.0 8.7 9.6 85 1.2 W 17 26 9 14 1020.6 1020.6 0.4
26/11:25pm 11.9 9.0 9.6 86 1.2 W 15 26 8 14 1020.6 1020.6 0.4
26/11:17pm 11.8 8.9 9.5 86 1.2 W 15 24 8 13 1020.7 1020.7 0.4
26/11:04pm 11.8 7.9 9.4 85 1.2 W 20 32 11 17 1020.7 1020.7 0.4
26/11:00pm 12.0 8.0 9.2 83 1.4 W 20 32 11 17 1020.7 1020.7 0.4
26/10:30pm 12.1 8.2 8.8 80 1.6 W 19 32 10 17 1020.8 1020.8 0.4
26/10:00pm 12.6 8.6 8.3 75 2.1 W 19 30 10 16 1020.8 1020.8 0.4
26/09:30pm 12.8 8.7 8.7 76 2.0 W 20 30 11 16 1020.8 1020.8 0.4
26/09:00pm 12.9 8.4 8.4 74 2.2 W 22 33 12 18 1020.8 1020.8 0.4
26/08:30pm 13.2 9.6 8.3 72 2.4 W 17 26 9 14 1020.5 1020.5 0.4
26/08:00pm 13.3 9.4 7.1 66 3.0 WSW 17 32 9 17 1020.5 1020.5 0.4
26/07:30pm 12.3 8.3 8.4 77 1.9 SSW 19 28 10 15 1020.5 1020.5 0.2
26/07:00pm 13.5 10.1 7.7 68 2.8 WSW 15 22 8 12 1020.4 1020.4 0.2
26/06:30pm 13.7 8.9 7.2 65 3.2 WSW 22 37 12 20 1020.2 1020.2 0.2
26/06:00pm 14.1 9.5 6.7 61 3.6 WSW 20 35 11 19 1019.7 1019.7 0.2
26/05:30pm 14.0 8.3 6.8 62 3.5 SW 26 39 14 21 1019.5 1019.5 0.2
26/05:00pm 14.2 8.9 6.6 60 3.7 SW 24 39 13 21 1019.2 1019.2 0.2
26/04:30pm 14.3 8.4 7.4 63 3.4 SW 28 41 15 22 1019.1 1019.1 0.2
26/04:00pm 14.1 8.2 7.6 65 3.2 SW 28 43 15 23 1018.9 1018.9 0.2
26/03:30pm 14.3 8.5 7.8 65 3.2 SW 28 41 15 22 1018.7 1018.7 0.2
26/03:09pm 13.2 9.5 9.5 78 1.9 SSW 19 26 10 14 1018.6 1018.6 0.2
26/03:00pm 12.4 7.9 10.0 85 1.2 SSW 24 41 13 22 1018.7 1018.7 0.2
26/02:57pm 12.1 6.8 9.7 85 1.2 SW 28 46 15 25 1018.8 1018.8 0.2
26/02:54pm 12.2 6.5 9.8 85 1.2 SW 30 46 16 25 1018.9 1018.9 0.2
26/02:49pm 13.4 8.1 9.8 79 1.8 SW 28 46 15 25 1018.8 1018.8 0.2
26/02:30pm 13.8 9.1 9.3 74 2.3 SW 24 33 13 18 1018.6 1018.6 0.2
26/02:05pm 13.1 7.5 8.8 75 2.2 SSW 28 46 15 25 1018.5 1018.5 0.2
26/02:00pm 13.1 6.6 8.8 75 2.2 SW 33 46 18 25 1018.6 1018.6 0.2
26/01:45pm 13.3 7.8 9.2 76 2.1 SW 28 46 15 25 1018.4 1018.4 0.2
26/01:30pm 14.6 9.6 7.9 64 3.3 SW 24 33 13 18 1018.2 1018.2 0.2
26/01:00pm 13.7 9.4 9.2 74 2.3 SSW 22 30 12 16 1018.3 1018.3 0.2
26/12:30pm 13.8 10.2 10.0 78 2.0 SSW 19 28 10 15 1018.3 1018.3 0.0
26/12:00pm 12.8 8.9 9.4 80 1.7 SW 20 32 11 17 1018.6 1018.6 0.0
26/11:30am 13.7 10.2 8.7 72 2.5 S 17 24 9 13 1018.7 1018.7 0.0
26/11:00am 13.7 9.6 8.7 72 2.5 S 20 32 11 17 1018.6 1018.6 0.0
26/10:30am 13.4 7.2 8.0 70 2.7 SSW 30 43 16 23 1018.7 1018.7 0.0
26/10:00am 12.6 7.5 9.2 80 1.7 SW 26 37 14 20 1018.7 1018.7 0.0
26/09:30am 11.9 8.2 9.5 85 1.2 S 19 30 10 16 1018.5 1018.5 0.0
26/09:00am 11.9 7.8 8.6 80 1.6 SSW 20 35 11 19 1018.3 1018.3 2.4
26/08:37am 11.8 6.9 8.6 81 1.6 SSW 24 43 13 23 1018.2 1018.2 2.4
26/08:30am 12.3 8.5 9.0 80 1.7 SSW 19 28 10 15 1017.9 1017.9 2.4
26/08:00am 12.2 7.6 8.3 77 1.9 SW 22 33 12 18 1017.7 1017.7 2.4
26/07:30am 13.0 7.7 6.6 65 3.1 SSW 24 35 13 19 1016.9 1016.9 2.4
26/07:00am 13.0 7.5 5.9 62 3.3 SSW 24 32 13 17 1016.5 1016.5 2.4
26/06:30am 12.5 7.4 7.6 72 2.4 SW 24 33 13 18 1016.2 1016.2 2.4
26/06:00am 12.9 6.7 6.0 63 3.3 SSW 28 39 15 21 1015.9 1015.9 2.2
26/05:30am 13.2 8.1 5.9 61 3.4 SSW 22 35 12 19 1015.7 1015.7 2.2
26/05:00am 13.1 7.8 6.9 66 3.0 SSW 24 33 13 18 1015.4 1015.4 2.2
26/04:30am 13.1 7.8 8.4 73 2.3 SSW 26 37 14 20 1015.3 1015.3 2.2
26/04:00am 13.3 7.4 7.5 68 2.8 SSW 28 39 15 21 1015.0 1015.0 2.2
26/03:30am 13.4 8.1 7.0 65 3.1 SW 24 33 13 18 1014.8 1014.8 2.2
26/03:00am 13.5 8.0 5.7 59 3.7 SW 24 32 13 17 1014.6 1014.6 2.2
26/02:30am 13.3 7.2 6.6 64 3.2 SW 28 39 15 21 1014.7 1014.7 2.2
26/02:00am 13.5 8.6 7.1 65 3.1 SW 22 33 12 18 1014.6 1014.6 2.2
26/01:30am 13.2 8.1 7.6 69 2.7 SW 24 39 13 21 1014.8 1014.8 2.2
26/01:00am 13.5 8.1 8.1 70 2.7 SW 26 39 14 21 1014.5 1014.5 2.2
26/12:30am 13.0 8.2 8.9 76 2.1 SSW 24 33 13 18 1014.4 1014.4 2.2
26/12:00am 12.7 7.6 10.6 87 1.1 SW 28 41 15 22 1014.0 1014.0 2.2
 
Date/Time
EST
Tmp

°C
App
Tmp
°C
Dew
Point
°C
Rel
Hum
%
Delta-T

°C
Wind Press
QNH
hPa
Press
MSL
hPa
Rain
since
9 am
mm
Dir
 
Spd
km/h
Gust
km/h
Spd
kts
Gust
kts
25/11:49pm 13.0 7.8 10.2 83 1.4 SW 28 46 15 25 1014.1 1014.1 2.2
25/11:30pm 13.6 7.6 10.0 79 1.9 SW 32 43 17 23 1013.7 1013.7 2.2
25/11:00pm 13.5 7.4 9.7 78 1.9 SW 32 52 17 28 1013.7 1013.7 2.2
25/10:34pm 14.1 8.7 9.5 74 2.4 SSW 28 48 15 26 1013.3 1013.3 2.2
25/10:30pm 14.1 8.7 9.5 74 2.4 SSW 28 44 15 24 1013.3 1013.3 2.2
25/10:00pm 14.2 8.2 10.0 76 2.2 SSW 32 44 17 24 1013.3 1013.3 2.2
25/09:30pm 14.2 8.3 10.4 78 2.0 SSW 32 44 17 24 1013.0 1013.0 2.2
25/09:00pm 14.2 7.8 10.8 80 1.8 SSW 35 48 19 26 1012.7 1012.7 2.2
25/08:30pm 14.4 9.2 11.6 83 1.5 SSW 30 43 16 23 1012.3 1012.3 2.2
25/08:00pm 14.2 10.3 12.1 87 1.1 SSW 24 35 13 19 1012.0 1012.0 2.2
25/07:40pm 13.9 11.6 13.0 94 0.5 SSW 17 26 9 14 1011.8 1011.8 1.8
25/07:30pm 13.9 11.2 12.8 93 0.6 SSW 19 28 10 15 1011.8 1011.8 1.6
25/07:23pm 14.0 11.0 12.4 90 0.9 SSW 20 30 11 16 1011.7 1011.7 1.4
25/07:00pm 14.5 11.6 12.2 86 1.2 SSW 19 30 10 16 1011.4 1011.4 1.2
25/06:30pm 14.3 12.7 11.6 84 1.4 SSW 11 17 6 9 1011.1 1011.1 1.2
25/06:00pm 14.6 11.3 11.0 79 1.9 SSW 19 28 10 15 1010.6 1010.6 1.2
25/05:30pm 14.4 11.7 11.7 84 1.4 SSW 17 24 9 13 1010.1 1010.1 1.2
25/05:00pm 14.3 11.3 12.0 86 1.2 SSW 19 28 10 15 1009.9 1009.9 1.0
25/04:30pm 14.6 12.9 12.6 88 1.1 SW 13 17 7 9 1009.6 1009.6 0.6
25/04:00pm 14.7 12.0 11.8 83 1.6 S 17 20 9 11 1009.4 1009.4 0.6
25/03:30pm 15.1 12.1 12.1 82 1.6 SSW 19 26 10 14 1009.1 1009.1 0.6
25/03:14pm 15.5 13.2 11.7 78 2.1 SSW 15 20 8 11 1008.9 1008.9 0.6
25/03:00pm 15.1 13.7 12.2 83 1.6 WSW 11 19 6 10 1008.7 1008.7 0.6
25/02:30pm 14.4 13.1 12.6 89 1.0 WNW 11 17 6 9 1008.6 1008.6 0.6
25/02:00pm 14.1 12.8 12.5 90 0.9 WNW 11 15 6 8 1008.5 1008.5 0.6
25/01:30pm 13.9 12.2 12.3 90 0.9 NW 13 17 7 9 1008.5 1008.5 0.6
25/01:00pm 13.4 11.6 12.1 92 0.7 NW 13 17 7 9 1008.5 1008.5 0.6
25/12:54pm 13.3 11.5 12.0 92 0.7 NW 13 17 7 9 1008.5 1008.5 0.6
25/12:30pm 13.1 11.6 12.0 93 0.6 NNW 11 15 6 8 1008.6 1008.6 0.6
25/12:22pm 12.9 11.3 11.6 92 0.7 NNW 11 17 6 9 1008.7 1008.7 0.6
25/12:00pm 12.7 10.7 11.4 92 0.7 NW 13 19 7 10 1008.9 1008.9 0.4
25/11:55am 12.6 10.5 11.3 92 0.7 NW 13 17 7 9 1009.0 1009.0 0.4
25/11:30am 12.6 10.5 11.2 91 0.7 NNW 13 15 7 8 1008.9 1008.9 0.2
25/11:05am 12.6 10.5 11.2 91 0.7 NNW 13 17 7 9 1009.0 1009.0 0.2
25/11:00am 12.4 9.9 11.0 91 0.7 NW 15 20 8 11 1009.0 1009.0 0.2
25/10:30am 12.7 10.7 11.4 92 0.7 NW 13 20 7 11 1008.9 1008.9 0.2
25/10:00am 12.6 10.9 11.2 91 0.7 NNW 11 13 6 7 1008.8 1008.8 0.2
25/09:52am 12.6 10.8 11.0 90 0.8 N 11 15 6 8 1009.0 1009.0 0.0
25/09:30am 12.4 10.9 10.6 89 0.9 N 9 11 5 6 1008.8 1008.8 0.0
25/09:00am 12.5 10.6 10.6 88 1.0 NNE 11 13 6 7 1008.6 1008.6 6.6
25/08:30am 12.5 12.3 10.4 87 1.1 WNW 2 6 1 3 1008.1 1008.1 6.6
25/08:00am 12.3 11.3 10.2 87 1.1 NW 6 9 3 5 1007.8 1007.8 6.6
25/07:30am 12.3 10.3 10.0 86 1.2 NNW 11 15 6 8 1007.7 1007.7 6.6
25/07:00am 12.4 10.4 10.0 85 1.2 NW 11 15 6 8 1007.5 1007.5 6.6
25/06:30am 12.7 10.7 10.1 84 1.3 W 11 19 6 10 1007.2 1007.2 6.6
25/06:00am 12.7 10.3 10.2 85 1.3 W 13 20 7 11 1006.7 1006.7 6.6
25/05:30am 12.5 9.4 10.4 87 1.1 W 17 20 9 11 1006.3 1006.3 6.6
25/05:00am 12.5 10.2 10.4 87 1.1 W 13 17 7 9 1006.4 1006.4 6.6
25/04:56am 12.6 10.3 10.5 87 1.1 W 13 19 7 10 1006.4 1006.4 6.6
25/04:30am 12.7 11.0 11.1 90 0.8 W 11 15 6 8 1006.2 1006.2 6.6
25/04:00am 12.8 11.7 11.9 94 0.5 W 9 13 5 7 1006.1 1006.1 6.6
25/03:38am 12.9 12.9 12.4 97 0.3 WNW 4 7 2 4 1006.0 1006.0 6.6
25/03:30am 12.9 13.7 12.4 97 0.3 CALM 0 2 0 1 1005.9 1005.9 6.6
25/03:00am 13.0 12.4 12.4 96 0.3 NNE 7 7 4 4 1005.9 1005.9 6.6
25/02:30am 13.1 13.4 12.3 95 0.4 NNW 2 7 1 4 1006.1 1006.1 6.6
25/02:00am 13.1 13.8 12.2 94 0.5 CALM 0 0 0 0 1006.2 1006.2 6.6
25/01:30am 13.3 12.9 12.4 94 0.5 NW 6 7 3 4 1006.4 1006.4 6.6
25/01:00am 13.4 13.0 12.3 93 0.6 NW 6 9 3 5 1006.5 1006.5 6.6
25/12:30am 13.4 12.9 12.5 94 0.5 NW 7 9 4 5 1006.5 1006.5 6.6
25/12:06am 13.4 13.0 12.3 93 0.6 NW 6 7 3 4 1006.4 1006.4 6.6
25/12:00am 13.5 13.2 12.6 94 0.5 WNW 6 7 3 4 1006.4 1006.4 6.6
 
Date/Time
EST
Tmp

°C
App
Tmp
°C
Dew
Point
°C
Rel
Hum
%
Delta-T

°C
Wind Press
QNH
hPa
Press
MSL
hPa
Rain
since
9 am
mm
Dir
 
Spd
km/h
Gust
km/h
Spd
kts
Gust
kts
24/11:30pm 13.6 13.1 12.8 95 0.4 NNW 7 11 4 6 1006.5 1006.5 6.4
24/11:17pm 13.5 13.0 12.7 95 0.4 WNW 7 11 4 6 1006.4 1006.4 6.4
24/11:00pm 13.5 12.3 12.9 96 0.3 WSW 11 15 6 8 1006.1 1006.1 6.4
24/10:30pm 13.5 11.9 12.9 96 0.3 WSW 13 20 7 11 1006.2 1006.2 6.4
24/10:25pm 13.4 11.7 12.6 95 0.4 W 13 24 7 13 1006.2 1006.2 6.4
24/10:00pm 14.0 9.4 12.4 90 0.9 W 28 39 15 21 1005.9 1005.9 4.8
24/09:55pm 14.4 10.9 12.3 87 1.1 NW 22 39 12 21 1005.8 1005.8 2.2
24/09:30pm 14.6 15.6 13.3 92 0.7 CALM 0 0 0 0 1005.3 1005.3 1.2
24/09:03pm 14.8 15.9 13.5 92 0.7 CALM 0 0 0 0 1005.1 1005.1 1.2
24/09:00pm 14.9 16.0 13.6 92 0.7 CALM 0 0 0 0 1005.1 1005.1 1.2
24/08:46pm 14.9 16.0 13.4 91 0.8 CALM 0 0 0 0 1005.0 1005.0 1.2
24/08:30pm 14.9 15.9 13.3 90 0.9 CALM 0 0 0 0 1004.9 1004.9 1.2
24/08:00pm 15.1 14.4 13.1 88 1.1 NNE 9 9 5 5 1004.8 1004.8 1.2
24/07:37pm 15.7 15.9 13.0 84 1.5 NNW 4 7 2 4 1004.8 1004.8 1.2
24/07:30pm 15.5 15.6 12.8 84 1.5 SSW 4 9 2 5 1004.8 1004.8 1.2
24/07:15pm 16.4 15.9 12.0 75 2.4 WNW 6 11 3 6 1004.9 1004.9 0.6
24/07:00pm 16.5 16.7 11.9 74 2.5 N 2 6 1 3 1004.6 1004.6 0.0
24/06:30pm 16.5 16.8 12.1 75 2.4 N 2 6 1 3 1004.3 1004.3 0.0
24/06:00pm 16.4 17.1 12.2 76 2.3 CALM 0 0 0 0 1004.0 1004.0 0.0
24/05:30pm 16.8 16.1 11.9 73 2.7 WSW 7 11 4 6 1003.6 1003.6 0.0

Latest Capital City Observations: Canberra | Sydney | Melbourne | Brisbane | Adelaide | Perth | Hobart | Darwin

Other Formats:

Comma delimited format used in spreadsheet applications
http://www.bom.gov.au/fwo/IDV60901/IDV60901.94870.axf

JavaScript Object Notation format (JSON) in row-major order
http://www.bom.gov.au/fwo/IDV60901/IDV60901.94870.json